createdAt,value
2018-06-05T00:00:59.715Z,5.73
2018-06-05T00:03:27.302Z,5.13
2018-06-05T00:05:54.929Z,6.03
2018-06-05T00:08:23.442Z,5.43
2018-06-05T00:10:51.035Z,5.50
2018-06-05T00:13:18.583Z,5.73
2018-06-05T00:15:46.181Z,6.03
2018-06-05T00:18:13.805Z,6.37
2018-06-05T00:20:41.448Z,5.90
2018-06-05T00:23:08.987Z,5.87
2018-06-05T00:25:36.595Z,5.83
2018-06-05T00:28:04.335Z,5.97
2018-06-05T00:30:31.944Z,5.77
2018-06-05T00:32:59.494Z,6.43
2018-06-05T00:35:27.106Z,5.83
2018-06-05T00:37:54.649Z,5.70
2018-06-05T00:40:22.229Z,5.57
2018-06-05T00:42:49.839Z,5.53
2018-06-05T00:45:17.404Z,6.10
2018-06-05T00:47:45.009Z,5.50
2018-06-05T00:50:12.605Z,6.40
2018-06-05T00:52:40.300Z,5.77
2018-06-05T00:55:07.928Z,5.67
2018-06-05T00:57:35.857Z,6.53
2018-06-05T01:00:04.139Z,6.70
2018-06-05T01:02:31.724Z,5.53
2018-06-05T01:04:59.296Z,6.17
2018-06-05T01:07:26.836Z,6.17
2018-06-05T01:09:54.400Z,5.93
2018-06-05T01:12:21.964Z,5.80
2018-06-05T01:14:49.603Z,6.27
2018-06-05T01:17:17.187Z,6.17
2018-06-05T01:19:44.783Z,6.27
2018-06-05T01:22:12.665Z,5.53
2018-06-05T01:24:40.244Z,6.07
2018-06-05T01:27:11.808Z,6.87
2018-06-05T01:29:39.393Z,6.47
2018-06-05T01:32:06.986Z,6.27
2018-06-05T01:34:34.546Z,5.77
2018-06-05T01:37:02.105Z,6.20
2018-06-05T01:39:29.663Z,6.40
2018-06-05T01:41:57.237Z,6.20
2018-06-05T01:44:24.809Z,5.90
2018-06-05T01:46:52.427Z,5.53
2018-06-05T01:49:20.008Z,6.20
2018-06-05T01:51:47.604Z,5.93
2018-06-05T01:54:15.186Z,5.77
2018-06-05T01:56:42.781Z,6.63
2018-06-05T01:59:10.352Z,5.87
2018-06-05T02:01:37.915Z,6.37
2018-06-05T02:04:05.468Z,6.00
2018-06-05T02:06:33.058Z,5.33
2018-06-05T02:09:00.741Z,6.13
2018-06-05T02:11:28.320Z,6.23
2018-06-05T02:13:55.883Z,6.30
2018-06-05T02:16:23.445Z,6.57
2018-06-05T02:18:51.057Z,6.97
2018-06-05T02:21:18.660Z,6.23
2018-06-05T02:23:46.433Z,6.17
2018-06-05T02:26:14.011Z,6.47
2018-06-05T02:28:41.615Z,6.00
2018-06-05T02:31:09.228Z,6.40
2018-06-05T02:33:36.825Z,6.97
2018-06-05T02:36:04.652Z,6.70
2018-06-05T02:38:32.237Z,6.30
2018-06-05T02:40:59.862Z,7.17
2018-06-05T02:43:27.383Z,6.53
2018-06-05T02:45:54.973Z,7.50
2018-06-05T02:48:22.865Z,7.87
2018-06-05T02:50:50.463Z,7.53
2018-06-05T02:53:18.063Z,7.27
2018-06-05T02:55:45.910Z,6.87
2018-06-05T02:58:13.476Z,7.90
2018-06-05T03:00:41.136Z,7.77
2018-06-05T03:03:08.807Z,8.07
2018-06-05T03:05:36.448Z,7.37
2018-06-05T03:08:04.150Z,7.50
2018-06-05T03:10:31.747Z,7.33
2018-06-05T03:12:59.357Z,7.93
2018-06-05T03:15:27.238Z,7.30
2018-06-05T03:17:54.838Z,7.47
2018-06-05T03:20:22.423Z,7.67
2018-06-05T03:22:50.010Z,8.50
2018-06-05T03:25:17.612Z,8.03
2018-06-05T03:27:45.200Z,7.90
2018-06-05T03:30:12.836Z,8.03
2018-06-05T03:32:40.490Z,7.80
2018-06-05T03:35:08.126Z,8.60
2018-06-05T03:37:35.747Z,8.23
2018-06-05T03:40:03.364Z,8.07
2018-06-05T03:42:31.917Z,7.37
2018-06-05T03:44:59.473Z,7.63
2018-06-05T03:47:27.237Z,8.03
2018-06-05T03:49:54.861Z,8.27
2018-06-05T03:52:22.437Z,8.37
2018-06-05T03:54:50.081Z,8.63
2018-06-05T03:57:18.072Z,8.07
2018-06-05T03:59:45.705Z,8.73
2018-06-05T04:02:13.402Z,7.80
2018-06-05T04:04:41.030Z,8.17
2018-06-05T04:07:08.709Z,7.53
2018-06-05T04:09:36.372Z,8.00
2018-06-05T04:12:03.953Z,8.13
2018-06-05T04:14:31.593Z,8.27
2018-06-05T04:16:59.224Z,8.90
2018-06-05T04:19:27.434Z,9.00
2018-06-05T04:21:55.049Z,8.57
2018-06-05T04:24:22.720Z,8.13
2018-06-05T04:26:50.370Z,8.47
2018-06-05T04:29:17.935Z,9.70
2018-06-05T04:31:45.533Z,8.97
2018-06-05T04:34:13.143Z,8.70
2018-06-05T04:36:40.765Z,8.93
2018-06-05T04:39:08.410Z,9.40
2018-06-05T04:41:36.026Z,9.03
2018-06-05T04:44:03.633Z,9.23
2018-06-05T04:46:31.233Z,8.33
2018-06-05T04:48:58.864Z,9.03
2018-06-05T04:51:26.474Z,10.23
2018-06-05T04:53:54.219Z,9.10
2018-06-05T04:56:21.848Z,9.57
2018-06-05T04:58:49.539Z,10.47
2018-06-05T05:01:17.112Z,9.93
2018-06-05T05:03:44.683Z,9.60
2018-06-05T05:06:12.270Z,10.23
2018-06-05T05:08:40.492Z,10.80
2018-06-05T05:11:08.144Z,10.33
2018-06-05T05:13:35.766Z,10.30
2018-06-05T05:16:03.609Z,10.37
2018-06-05T05:18:31.259Z,10.70
2018-06-05T05:20:58.909Z,10.13
2018-06-05T05:23:26.482Z,11.33
2018-06-05T05:25:54.431Z,10.10
2018-06-05T05:28:22.033Z,9.87
2018-06-05T05:30:49.708Z,10.53
2018-06-05T05:33:17.335Z,11.23
2018-06-05T05:35:44.940Z,10.50
2018-06-05T05:38:12.505Z,10.70
2018-06-05T05:40:40.074Z,10.13
2018-06-05T05:43:07.704Z,10.33
2018-06-05T05:45:35.328Z,10.20
2018-06-05T05:48:03.009Z,9.13
2018-06-05T05:50:30.601Z,9.90
2018-06-05T05:52:58.205Z,10.17
2018-06-05T05:55:25.779Z,11.07
2018-06-05T05:57:53.457Z,11.23
2018-06-05T06:00:21.287Z,10.90
2018-06-05T06:02:48.904Z,10.67
2018-06-05T06:05:16.500Z,9.90
2018-06-05T06:07:44.133Z,9.93
2018-06-05T06:10:11.757Z,11.20
2018-06-05T06:12:39.332Z,10.43
2018-06-05T06:15:07.020Z,10.57
2018-06-05T06:17:34.591Z,10.77
2018-06-05T06:20:02.189Z,11.63
2018-06-05T06:22:29.748Z,11.00
2018-06-05T06:24:57.401Z,10.87
2018-06-05T06:27:25.059Z,10.50
2018-06-05T06:29:52.675Z,10.57
2018-06-05T06:32:20.318Z,10.37
2018-06-05T06:34:47.919Z,10.23
2018-06-05T06:37:15.520Z,11.20
2018-06-05T06:39:43.107Z,10.87
2018-06-05T06:42:10.682Z,10.70
2018-06-05T06:44:38.277Z,11.13
2018-06-05T06:47:05.850Z,10.97
2018-06-05T06:49:33.484Z,11.47
2018-06-05T06:52:01.079Z,11.67
2018-06-05T06:54:28.650Z,12.00
2018-06-05T06:56:56.209Z,12.17
2018-06-05T06:59:24.053Z,11.83
2018-06-05T07:01:52.086Z,11.17
2018-06-05T07:04:19.699Z,10.80
2018-06-05T07:06:47.257Z,11.47
2018-06-05T07:09:14.861Z,11.50
2018-06-05T07:11:42.481Z,11.40
2018-06-05T07:14:10.080Z,10.53
2018-06-05T07:16:38.489Z,11.00
2018-06-05T07:19:06.151Z,11.23
2018-06-05T07:21:33.730Z,11.10
2018-06-05T07:24:01.410Z,10.60
2018-06-05T07:26:28.949Z,10.40
2018-06-05T07:28:56.602Z,10.60
2018-06-05T07:31:24.192Z,9.57
2018-06-05T07:33:51.801Z,10.30
2018-06-05T07:36:19.425Z,9.83
2018-06-05T07:38:47.060Z,9.83
2018-06-05T07:41:14.719Z,9.23
2018-06-05T07:43:42.586Z,9.77
2018-06-05T07:46:10.169Z,9.30
2018-06-05T07:48:37.737Z,10.07
2018-06-05T07:51:05.422Z,10.03
2018-06-05T07:53:32.994Z,9.07
2018-06-05T07:56:00.563Z,9.53
2018-06-05T07:58:28.129Z,8.80
2018-06-05T08:00:55.707Z,9.50
2018-06-05T08:03:23.320Z,7.83
2018-06-05T08:05:50.921Z,8.97
2018-06-05T08:08:18.525Z,8.60
2018-06-05T08:10:46.092Z,8.80
2018-06-05T08:13:13.667Z,9.33
2018-06-05T08:15:41.326Z,8.60
2018-06-05T08:18:08.935Z,8.23
2018-06-05T08:20:36.581Z,9.00
2018-06-05T08:23:04.203Z,9.10
2018-06-05T08:25:31.787Z,9.03
2018-06-05T08:27:59.432Z,8.53
2018-06-05T08:30:27.070Z,8.80
2018-06-05T08:32:54.719Z,8.73
2018-06-05T08:35:22.293Z,8.70
2018-06-05T08:37:50.852Z,8.17
2018-06-05T08:40:18.456Z,8.30
2018-06-05T08:42:46.136Z,7.57
2018-06-05T08:45:13.875Z,9.10
2018-06-05T08:47:41.434Z,8.30
2018-06-05T08:50:09.104Z,8.10
2018-06-05T08:52:36.698Z,7.97
2018-06-05T08:55:04.618Z,8.67
2018-06-05T08:57:32.242Z,7.83
2018-06-05T08:59:59.911Z,8.23
2018-06-05T09:02:27.428Z,9.00
2018-06-05T09:04:55.016Z,9.37
2018-06-05T09:07:22.640Z,9.13
2018-06-05T09:09:50.241Z,8.87
2018-06-05T09:12:17.892Z,8.97
2018-06-05T09:14:45.476Z,9.50
2018-06-05T09:17:13.037Z,8.70
2018-06-05T09:19:40.610Z,9.47
2018-06-05T09:22:08.185Z,10.23
2018-06-05T09:24:35.732Z,10.33
2018-06-05T09:27:03.393Z,10.40
2018-06-05T09:29:31.018Z,10.87
2018-06-05T09:31:58.631Z,11.30
2018-06-05T09:34:26.492Z,11.97
2018-06-05T09:36:54.056Z,11.43
2018-06-05T09:39:21.698Z,13.33
2018-06-05T09:41:49.300Z,11.30
2018-06-05T09:44:16.884Z,11.83
2018-06-05T09:46:44.508Z,11.47
2018-06-05T09:49:12.100Z,10.80
2018-06-05T09:51:39.724Z,10.63
2018-06-05T09:54:07.333Z,11.07
2018-06-05T09:56:34.933Z,11.07
2018-06-05T09:59:02.790Z,12.50
2018-06-05T10:01:30.380Z,12.07
2018-06-05T10:03:58.079Z,12.33
2018-06-05T10:06:25.685Z,13.33
2018-06-05T10:08:53.309Z,12.80
2018-06-05T10:11:20.994Z,12.03
2018-06-05T10:13:48.553Z,12.73
2018-06-05T10:16:16.131Z,13.63
2018-06-05T10:18:43.716Z,12.23
2018-06-05T10:21:11.349Z,11.93
2018-06-05T10:23:38.951Z,12.30
2018-06-05T10:26:06.562Z,11.97
2018-06-05T10:28:34.164Z,12.17
2018-06-05T10:31:01.788Z,12.37
2018-06-05T10:33:29.386Z,11.53
2018-06-05T10:35:57.692Z,11.50
2018-06-05T10:38:25.300Z,11.23
2018-06-05T10:40:53.283Z,11.07
2018-06-05T10:43:20.913Z,11.77
2018-06-05T10:45:48.490Z,12.03
2018-06-05T10:48:16.034Z,13.07
2018-06-05T10:50:43.638Z,13.10
2018-06-05T10:53:11.247Z,13.63
2018-06-05T10:55:38.861Z,14.13
2018-06-05T10:58:06.475Z,13.93
2018-06-05T11:00:34.110Z,13.73
2018-06-05T11:03:01.759Z,12.80
2018-06-05T11:05:29.361Z,13.77
2018-06-05T11:07:56.948Z,13.50
2018-06-05T11:10:24.542Z,13.17
2018-06-05T11:12:52.177Z,13.97
2018-06-05T11:15:19.812Z,13.57
2018-06-05T11:17:47.422Z,13.90
2018-06-05T11:20:15.894Z,13.33
2018-06-05T11:22:43.612Z,13.40
2018-06-05T11:25:11.190Z,12.57
2018-06-05T11:27:38.785Z,12.23
2018-06-05T11:30:06.431Z,12.07
2018-06-05T11:32:33.995Z,13.00
2018-06-05T11:35:01.590Z,13.57
2018-06-05T11:37:30.128Z,13.97
2018-06-05T11:39:59.823Z,14.60
2018-06-05T11:42:27.411Z,14.73
2018-06-05T11:44:54.982Z,13.90
2018-06-05T11:47:22.590Z,15.07
2018-06-05T11:49:50.179Z,13.70
2018-06-05T11:52:17.774Z,14.67
2018-06-05T11:54:45.360Z,13.30
2018-06-05T11:57:13.603Z,13.10
2018-06-05T11:59:41.190Z,13.30
2018-06-05T12:02:08.777Z,12.27
2018-06-05T12:04:36.406Z,11.83
2018-06-05T12:07:04.029Z,11.47
2018-06-05T12:09:31.635Z,11.40
2018-06-05T12:11:59.245Z,12.10
2018-06-05T12:14:26.839Z,11.27
2018-06-05T12:16:54.438Z,11.40
2018-06-05T12:19:22.063Z,13.27
2018-06-05T12:21:49.862Z,11.57
2018-06-05T12:24:17.453Z,10.93
2018-06-05T12:26:45.090Z,11.27
2018-06-05T12:29:12.633Z,10.77
2018-06-05T12:31:40.234Z,11.00
2018-06-05T12:34:07.835Z,11.60
2018-06-05T12:36:35.876Z,13.07
2018-06-05T12:39:07.616Z,12.10
2018-06-05T12:41:35.287Z,14.43
2018-06-05T12:44:03.493Z,14.50
2018-06-05T12:46:31.100Z,14.57
2018-06-05T12:48:58.789Z,13.87
2018-06-05T12:51:26.368Z,14.63
2018-06-05T12:53:53.919Z,13.80
2018-06-05T12:56:21.590Z,14.03
2018-06-05T12:58:49.183Z,13.47
2018-06-05T13:01:16.739Z,13.60
2018-06-05T13:03:44.311Z,12.47
2018-06-05T13:06:11.990Z,11.87
2018-06-05T13:08:39.593Z,12.17
2018-06-05T13:11:07.183Z,11.97
2018-06-05T13:13:34.729Z,11.80
2018-06-05T13:16:02.344Z,10.43
2018-06-05T13:18:29.965Z,10.73
2018-06-05T13:20:57.516Z,11.43
2018-06-05T13:23:25.210Z,11.27
2018-06-05T13:25:52.829Z,10.73
2018-06-05T13:28:20.421Z,9.60
2018-06-05T13:30:48.001Z,9.80
2018-06-05T13:33:15.556Z,9.60
2018-06-05T13:35:43.135Z,9.63
2018-06-05T13:40:45.380Z,8.67
2018-06-05T13:43:12.945Z,8.50
2018-06-05T13:45:40.503Z,8.10
2018-06-05T13:48:08.141Z,8.47
2018-06-05T13:50:35.767Z,8.37
2018-06-05T13:53:03.357Z,8.57
2018-06-05T13:55:30.941Z,7.93
2018-06-05T13:57:59.299Z,8.27
2018-06-05T14:00:26.859Z,8.73
2018-06-05T14:02:54.501Z,8.93
2018-06-05T14:05:22.061Z,8.10
2018-06-05T14:07:49.728Z,7.90
2018-06-05T14:10:17.284Z,7.80
2018-06-05T14:12:44.855Z,8.43
2018-06-05T14:15:12.429Z,8.13
2018-06-05T14:17:39.985Z,7.70
2018-06-05T14:20:07.528Z,6.53
2018-06-05T14:22:35.125Z,8.07
2018-06-05T14:25:02.821Z,8.27
2018-06-05T14:27:30.375Z,7.40
2018-06-05T14:29:58.054Z,6.60
2018-06-05T14:32:25.701Z,7.07
2018-06-05T14:34:53.348Z,6.47
2018-06-05T14:37:20.925Z,7.63
2018-06-05T14:39:48.508Z,7.07
2018-06-05T14:42:16.442Z,7.90
2018-06-05T14:44:44.043Z,7.60
2018-06-05T14:47:11.672Z,7.53
2018-06-05T14:49:39.334Z,6.73
2018-06-05T14:52:07.853Z,7.33
2018-06-05T14:54:35.442Z,7.33
2018-06-05T14:57:03.082Z,7.70
2018-06-05T14:59:30.662Z,6.43
2018-06-05T15:01:58.362Z,7.10
2018-06-05T15:04:26.020Z,7.43
2018-06-05T15:06:53.620Z,6.47
2018-06-05T15:09:21.233Z,6.80
2018-06-05T15:11:48.824Z,7.40
2018-06-05T15:14:16.422Z,7.53
2018-06-05T15:16:44.005Z,6.37
2018-06-05T15:19:12.613Z,7.57
2018-06-05T15:21:40.293Z,6.80
2018-06-05T15:24:07.864Z,6.87
2018-06-05T15:26:35.500Z,7.83
2018-06-05T15:29:03.123Z,7.30
2018-06-05T15:31:30.757Z,7.57
2018-06-05T15:33:58.395Z,7.87
2018-06-05T15:36:25.977Z,7.50
2018-06-05T15:38:53.594Z,7.07
2018-06-05T15:41:21.290Z,7.57
2018-06-05T15:43:48.909Z,7.87
2018-06-05T15:46:16.421Z,8.70
2018-06-05T15:48:44.006Z,8.50
2018-06-05T15:51:11.570Z,8.67
2018-06-05T15:53:39.923Z,8.57
2018-06-05T15:56:07.610Z,8.83
2018-06-05T15:58:35.225Z,8.80
2018-06-05T16:01:02.811Z,8.50
2018-06-05T16:03:31.073Z,8.87
2018-06-05T16:05:58.852Z,8.77
2018-06-05T16:08:26.408Z,8.40
2018-06-05T16:10:54.045Z,8.70
2018-06-05T16:13:21.690Z,8.67
2018-06-05T16:15:49.309Z,8.80
2018-06-05T16:18:16.886Z,9.33
2018-06-05T16:20:44.523Z,8.80
2018-06-05T16:23:12.160Z,8.93
2018-06-05T16:25:39.721Z,8.53
2018-06-05T16:28:07.364Z,8.77
2018-06-05T16:30:35.002Z,8.27
2018-06-05T16:33:02.606Z,8.80
2018-06-05T16:35:30.204Z,9.33
2018-06-05T16:37:59.112Z,8.53
2018-06-05T16:40:27.324Z,8.67
2018-06-05T16:42:55.698Z,8.40
2018-06-05T16:45:23.417Z,8.50
2018-06-05T16:47:51.008Z,9.13
2018-06-05T16:50:18.607Z,9.03
2018-06-05T16:52:46.152Z,9.07
2018-06-05T16:55:13.703Z,8.03
2018-06-05T16:57:41.301Z,7.73
2018-06-05T17:00:08.909Z,7.90
2018-06-05T17:02:36.492Z,7.80
2018-06-05T17:05:04.131Z,8.30
2018-06-05T17:07:31.787Z,7.90
2018-06-05T17:10:00.021Z,7.97
2018-06-05T17:12:27.628Z,7.43
2018-06-05T17:14:55.237Z,7.80
2018-06-05T17:17:22.858Z,7.97
2018-06-05T17:19:50.544Z,7.10
2018-06-05T17:22:18.169Z,8.07
2018-06-05T17:24:46.919Z,8.10
2018-06-05T17:27:14.973Z,7.53
2018-06-05T17:29:43.200Z,7.33
2018-06-05T17:32:11.844Z,7.37
2018-06-05T17:34:40.455Z,7.50
2018-06-05T17:37:08.232Z,6.73
2018-06-05T17:39:36.748Z,7.27
2018-06-05T17:42:06.879Z,7.53
2018-06-05T17:44:34.892Z,7.40
2018-06-05T17:47:02.992Z,7.17
2018-06-05T17:49:31.044Z,6.17
2018-06-05T17:51:59.160Z,7.83
2018-06-05T17:54:27.042Z,7.60
2018-06-05T17:56:54.946Z,7.20
2018-06-05T17:59:23.938Z,6.90
2018-06-05T18:01:51.757Z,6.73
2018-06-05T18:04:21.991Z,7.23
2018-06-05T18:06:49.660Z,6.87
2018-06-05T18:09:17.361Z,7.30
2018-06-05T18:11:45.186Z,7.57
2018-06-05T18:14:13.034Z,6.57
2018-06-05T18:16:40.898Z,7.27
2018-06-05T18:19:08.621Z,6.63
2018-06-05T18:21:37.050Z,6.57
2018-06-05T18:24:04.974Z,6.00
2018-06-05T18:26:32.653Z,5.93
2018-06-05T18:29:00.438Z,6.03
2018-06-05T18:31:28.728Z,6.43
2018-06-05T18:33:56.413Z,6.37
2018-06-05T18:36:24.102Z,5.63
2018-06-05T18:38:52.079Z,6.10
2018-06-05T18:41:20.003Z,5.83
2018-06-05T18:43:47.805Z,5.03
2018-06-05T18:46:15.641Z,5.73
2018-06-05T18:48:44.139Z,5.80
2018-06-05T18:51:11.942Z,6.10
2018-06-05T18:53:39.673Z,5.73
2018-06-05T18:56:07.309Z,5.13
2018-06-05T18:58:34.873Z,6.40
2018-06-05T19:01:02.670Z,5.93
2018-06-05T19:03:30.271Z,5.43
2018-06-05T19:05:58.393Z,5.33
2018-06-05T19:08:26.033Z,4.80
2018-06-05T19:10:54.378Z,5.53
2018-06-05T19:13:22.589Z,6.17
2018-06-05T19:15:50.321Z,6.50
2018-06-05T19:18:18.026Z,6.20
2018-06-05T19:20:46.556Z,6.10
2018-06-05T19:23:14.240Z,6.70
2018-06-05T19:25:41.890Z,6.47
2018-06-05T19:28:09.567Z,6.03
2018-06-05T19:30:37.215Z,6.30
2018-06-05T19:33:05.626Z,6.50
2018-06-05T19:35:33.822Z,6.57
2018-06-05T19:38:01.502Z,6.07
2018-06-05T19:40:29.400Z,6.43
2018-06-05T19:42:57.184Z,6.40
2018-06-05T19:45:24.941Z,6.33
2018-06-05T19:47:52.553Z,6.70
2018-06-05T19:50:20.294Z,7.27
2018-06-05T19:52:47.905Z,7.27
2018-06-05T19:55:15.524Z,7.77
2018-06-05T19:57:43.793Z,6.83
2018-06-05T20:00:11.414Z,7.37
2018-06-05T20:02:39.093Z,7.70
2018-06-05T20:05:06.858Z,7.10
2018-06-05T20:07:34.474Z,6.80
2018-06-05T20:10:02.126Z,7.07
2018-06-05T20:12:29.739Z,7.23
2018-06-05T20:14:57.430Z,7.90
2018-06-05T20:17:25.072Z,7.57
2018-06-05T20:19:52.659Z,6.60
2018-06-05T20:22:20.274Z,8.03
2018-06-05T20:24:47.904Z,7.90
2018-06-05T20:27:15.473Z,8.27
2018-06-05T20:29:43.368Z,7.70
2018-06-05T20:32:10.962Z,8.47
2018-06-05T20:34:38.556Z,8.57
2018-06-05T20:37:06.340Z,8.40
2018-06-05T20:39:33.931Z,8.27
2018-06-05T20:42:01.774Z,8.57
2018-06-05T20:44:29.396Z,8.07
2018-06-05T20:46:57.227Z,8.47
2018-06-05T20:49:24.822Z,8.70
2018-06-05T20:51:52.461Z,8.33
2018-06-05T20:54:20.187Z,8.33
2018-06-05T20:56:47.770Z,8.17
2018-06-05T20:59:15.417Z,8.80
2018-06-05T21:01:43.039Z,9.10
2018-06-05T21:04:10.630Z,9.33
2018-06-05T21:06:38.290Z,9.33
2018-06-05T21:09:06.493Z,8.93
2018-06-05T21:11:34.053Z,8.90
2018-06-05T21:14:02.024Z,9.17
2018-06-05T21:16:29.677Z,8.50
2018-06-05T21:18:57.304Z,9.30
2018-06-05T21:21:24.932Z,9.87
2018-06-05T21:23:53.069Z,9.70
2018-06-05T21:26:20.779Z,9.37
2018-06-05T21:28:48.412Z,9.13
2018-06-05T21:31:16.053Z,8.80
2018-06-05T21:33:43.629Z,9.60
2018-06-05T21:36:11.264Z,9.17
2018-06-05T21:38:38.888Z,8.10
2018-06-05T21:41:06.484Z,9.17
2018-06-05T21:43:34.088Z,9.87
2018-06-05T21:46:01.749Z,9.53
2018-06-05T21:48:29.350Z,10.10
2018-06-05T21:50:56.941Z,10.33
2018-06-05T21:53:24.508Z,10.00
2018-06-05T21:55:52.179Z,9.93
2018-06-05T21:58:19.764Z,9.67
2018-06-05T22:00:47.326Z,9.50
2018-06-05T22:03:14.881Z,9.17
2018-06-05T22:05:42.521Z,9.37
2018-06-05T22:08:10.145Z,9.33
2018-06-05T22:10:37.730Z,9.20
2018-06-05T22:13:05.486Z,9.73
2018-06-05T22:15:33.136Z,8.23
2018-06-05T22:18:00.747Z,9.03
2018-06-05T22:20:28.418Z,9.57
2018-06-05T22:22:56.084Z,9.90
2018-06-05T22:25:23.655Z,8.90
2018-06-05T22:27:51.242Z,9.10
2018-06-05T22:30:18.925Z,9.00
2018-06-05T22:32:46.483Z,8.67
2018-06-05T22:35:14.088Z,8.97
2018-06-05T22:37:41.797Z,8.80
2018-06-05T22:40:09.414Z,9.03
2018-06-05T22:42:37.070Z,9.13
2018-06-05T22:45:04.746Z,9.17
2018-06-05T22:47:32.317Z,9.80
2018-06-05T22:49:59.876Z,9.40
2018-06-05T22:52:27.458Z,10.37
2018-06-05T22:54:55.081Z,10.10
2018-06-05T22:57:22.712Z,10.67
2018-06-05T22:59:50.306Z,10.07
2018-06-05T23:02:18.155Z,10.33
2018-06-05T23:04:45.914Z,10.03
2018-06-05T23:07:13.513Z,10.13
2018-06-05T23:09:41.157Z,11.17
2018-06-05T23:12:08.737Z,9.73
2018-06-05T23:14:36.956Z,8.87
2018-06-05T23:17:04.573Z,9.03
2018-06-05T23:19:32.148Z,9.47
2018-06-05T23:21:59.736Z,10.17
2018-06-05T23:24:27.325Z,10.17
2018-06-05T23:26:54.935Z,9.97
2018-06-05T23:29:22.571Z,9.77
2018-06-05T23:31:50.214Z,10.47
2018-06-05T23:34:17.774Z,10.40
2018-06-05T23:36:45.312Z,10.10
2018-06-05T23:39:12.996Z,9.70
2018-06-05T23:41:40.592Z,10.30
2018-06-05T23:44:08.204Z,10.70
2018-06-05T23:46:35.797Z,10.30
2018-06-05T23:49:03.418Z,9.80
2018-06-05T23:51:31.025Z,10.30
2018-06-05T23:53:58.645Z,9.30
2018-06-05T23:56:26.304Z,10.20
2018-06-05T23:58:53.925Z,10.03
